Bayfield, CO (81122)

12:10 PM MDT on April 27, 2017 (GMT -0600)
Bayfield Weather | | Change Station

Elev 7047 ft 37.25 °N, 107.60 °W | Updated 2 seconds ago

Mostly Cloudy
Mostly Cloudy
43.4 °F
Feels Like 42 °F
N
3.5
Wind Variable Wind from NW
Gusts 3.5 mph

Today
High -- | Low -- °F
--% Chance of Precip.
Yesterday
High -- | Low -- °F
Precip. -- in
Pressure 29.71 in
Visibility 10.0 miles
Clouds Few 2900 ft
Scattered Clouds 4000 ft
Mostly Cloudy 8000 ft
Windchill 42 °F
Dew Point 36 °F
Humidity 76%
Rainfall 0.25 in
Snow Depth Not available.
6:19 AM 7:56 PM
New Moon, 2% visible
SPECI KDRO 271805Z AUTO 31015KT 10SM FEW029 SCT040 BKN080 09/02 A2971 RMK AO2 WSHFT 1745 T00890022
Pressure 29.71 in
Visibility 10.0 miles
Clouds Few 2900 ft
Scattered Clouds 4000 ft
Mostly Cloudy 8000 ft
Windchill 42 °F
Dew Point 36 °F
Humidity 76%
Rainfall 0.25 in
Snow Depth Not available.
6:19 AM 7:56 PM
New Moon, 2% visible
SPECI KDRO 271805Z AUTO 31015KT 10SM FEW029 SCT040 BKN080 09/02 A2971 RMK AO2 WSHFT 1745 T00890022

Get Severe Weather Alerts

Thanks for signing up!

Be on the lookout for a verification email in your inbox.

You'll start receiving the daily forecast at 8 AM.

×

10-Day Weather Forecast

Almanac

Astronomy

Apr. 27, 2017 Rise Set
Actual Time
Civil Twilight
Nautical Twilight
Astronomical Twilight
Moon
Length of Visible Light
Length of Day
Tomorrow will be .
, % of the Moon is Illuminated

Today's Extremes

State Highs State Lows

Community

WunderPhotos

WunderBlog® & News

Nearby

Air Quality

  Air Quality AQ Index Pollutant
Not available.

Snow Depth

Station Depth Elevation

Earthquake Activity

City Distance Mag. Time & Date
Minimum magnitude displayed is 2.5.

Coastal Water Temperatures

Place Temperature

Stations

Nearby Weather Stations

Station Location Temp. Windchill Dew Point Humidity Wind Precip. Elev Updated Type
                   

Watches & Warnings

There are currently no watches in effect.